createdAt,value
2019-03-31T00:01:12.770Z,75.30
2019-03-31T00:03:43.866Z,75.20
2019-03-31T00:06:14.696Z,74.60
2019-03-31T00:08:45.384Z,74.80
2019-03-31T00:11:16.219Z,74.70
2019-03-31T00:13:46.989Z,75.00
2019-03-31T00:16:17.957Z,74.70
2019-03-31T00:18:48.850Z,74.20
2019-03-31T00:21:19.563Z,74.70
2019-03-31T00:23:50.189Z,74.30
2019-03-31T00:26:21.301Z,74.60
2019-03-31T00:28:54.347Z,74.30
2019-03-31T00:31:27.088Z,73.60
2019-03-31T00:33:57.815Z,73.40
2019-03-31T00:36:28.376Z,74.20
2019-03-31T00:38:59.191Z,73.50
2019-03-31T00:41:30.372Z,73.10
2019-03-31T00:44:00.979Z,73.30
2019-03-31T00:46:32.206Z,72.60
2019-03-31T00:49:02.939Z,72.60
2019-03-31T00:51:33.915Z,72.00
2019-03-31T00:54:04.830Z,71.80
2019-03-31T00:56:35.314Z,72.00
2019-03-31T00:59:06.080Z,71.50
2019-03-31T01:01:38.940Z,71.30
2019-03-31T01:04:10.116Z,70.70
2019-03-31T01:06:40.975Z,70.30
2019-03-31T01:09:15.895Z,70.40
2019-03-31T01:11:46.747Z,69.40
2019-03-31T01:14:17.573Z,68.90
2019-03-31T01:16:48.450Z,68.20
2019-03-31T01:19:19.070Z,67.90
2019-03-31T01:21:49.750Z,67.70
2019-03-31T01:24:21.083Z,67.20
2019-03-31T01:26:51.735Z,66.60
2019-03-31T01:29:22.502Z,66.10
2019-03-31T01:31:54.429Z,65.90
2019-03-31T01:34:25.184Z,65.50
2019-03-31T01:36:55.901Z,64.90
2019-03-31T01:39:28.600Z,64.30
2019-03-31T01:41:59.269Z,63.80
2019-03-31T01:44:29.847Z,63.40
2019-03-31T01:47:00.725Z,62.90
2019-03-31T01:49:31.350Z,62.90
2019-03-31T01:52:01.876Z,62.50
2019-03-31T01:54:32.963Z,62.00
2019-03-31T01:57:03.637Z,61.30
2019-03-31T01:59:34.421Z,61.00
2019-03-31T02:02:05.520Z,60.40
2019-03-31T02:04:36.039Z,60.10
2019-03-31T02:07:07.706Z,59.60
2019-03-31T02:09:38.718Z,59.20
2019-03-31T02:12:09.458Z,58.90
2019-03-31T02:14:40.333Z,58.70
2019-03-31T02:17:11.093Z,58.20
2019-03-31T02:19:41.763Z,58.10
2019-03-31T02:22:12.077Z,58.30
2019-03-31T02:24:43.278Z,57.90
2019-03-31T02:27:14.161Z,57.70
2019-03-31T02:29:44.834Z,57.30
2019-03-31T02:32:24.102Z,57.00
2019-03-31T02:34:47.828Z,56.70
2019-03-31T02:37:18.599Z,56.20
2019-03-31T02:39:49.577Z,55.90
2019-03-31T02:42:23.286Z,56.70
2019-03-31T02:44:55.162Z,54.80
2019-03-31T02:47:25.658Z,55.60
2019-03-31T02:49:56.428Z,55.40
2019-03-31T02:52:27.318Z,54.90
2019-03-31T02:54:58.045Z,54.50
2019-03-31T02:57:28.793Z,54.20
2019-03-31T02:59:59.775Z,54.20
2019-03-31T03:02:41.329Z,53.00
2019-03-31T03:05:17.878Z,53.10
2019-03-31T03:07:36.779Z,52.50
2019-03-31T03:10:07.527Z,52.80
2019-03-31T03:12:40.027Z,52.10
2019-03-31T03:15:13.882Z,52.30
2019-03-31T03:17:44.649Z,52.10
2019-03-31T03:20:15.431Z,50.70
2019-03-31T03:22:46.275Z,50.50
2019-03-31T03:25:16.908Z,49.20
2019-03-31T03:27:47.881Z,49.60
2019-03-31T03:30:18.494Z,48.70
2019-03-31T03:33:13.331Z,46.80
2019-03-31T03:35:21.352Z,46.40
2019-03-31T03:37:52.292Z,47.70
2019-03-31T03:40:23.130Z,48.00
2019-03-31T03:42:53.836Z,47.80
2019-03-31T03:45:24.750Z,48.00
2019-03-31T03:47:55.437Z,48.90
2019-03-31T03:50:26.419Z,48.80
2019-03-31T03:52:57.056Z,49.00
2019-03-31T03:55:27.684Z,48.50
2019-03-31T03:57:58.607Z,46.90
2019-03-31T04:00:29.314Z,46.40
2019-03-31T04:02:59.993Z,47.20
2019-03-31T04:05:30.902Z,46.60
2019-03-31T04:08:01.764Z,46.70
2019-03-31T04:10:35.244Z,46.30
2019-03-31T04:13:06.319Z,46.10
2019-03-31T04:15:37.167Z,46.00
2019-03-31T04:18:07.869Z,45.30
2019-03-31T04:20:39.405Z,45.70
2019-03-31T04:23:10.405Z,45.50
2019-03-31T04:25:40.994Z,45.00
2019-03-31T04:28:11.915Z,45.40
2019-03-31T04:30:42.553Z,43.80
2019-03-31T04:33:13.121Z,42.80
2019-03-31T04:35:44.116Z,42.90
2019-03-31T04:38:14.733Z,43.00
2019-03-31T04:40:45.367Z,42.20
2019-03-31T04:43:16.493Z,42.60
2019-03-31T04:45:47.287Z,42.70
2019-03-31T04:48:18.254Z,41.60
2019-03-31T04:50:51.931Z,42.60
2019-03-31T04:53:21.099Z,41.90
2019-03-31T04:55:51.983Z,41.70
2019-03-31T04:58:23.051Z,41.80
2019-03-31T05:00:53.740Z,42.20
2019-03-31T05:03:24.310Z,42.20
2019-03-31T05:05:55.632Z,41.90
2019-03-31T05:08:26.284Z,43.10
2019-03-31T05:10:57.059Z,41.40
2019-03-31T05:13:27.747Z,41.30
2019-03-31T05:15:58.396Z,40.70
2019-03-31T05:18:29.382Z,39.80
2019-03-31T05:21:00.287Z,40.50
2019-03-31T05:23:31.052Z,41.50
2019-03-31T05:26:01.803Z,41.40
2019-03-31T05:28:32.484Z,41.10
2019-03-31T05:31:03.160Z,40.80
2019-03-31T05:33:33.976Z,40.80
2019-03-31T05:36:04.743Z,41.10
2019-03-31T05:38:35.425Z,41.00
2019-03-31T05:41:06.256Z,40.70
2019-03-31T05:43:36.920Z,41.00
2019-03-31T05:46:07.653Z,41.90
2019-03-31T05:48:38.623Z,40.00
2019-03-31T05:51:09.193Z,40.70
2019-03-31T05:53:39.975Z,41.10
2019-03-31T05:56:10.839Z,40.90
2019-03-31T05:58:41.697Z,39.80
2019-03-31T06:01:12.534Z,39.50
2019-03-31T06:03:43.435Z,41.10
2019-03-31T06:06:14.241Z,41.10
2019-03-31T06:08:45.193Z,41.40
2019-03-31T06:11:15.661Z,40.70
2019-03-31T06:13:46.515Z,40.50
2019-03-31T06:16:17.446Z,39.70
2019-03-31T06:18:47.963Z,39.10
2019-03-31T06:21:18.662Z,39.30
2019-03-31T06:23:49.393Z,40.30
2019-03-31T06:26:19.974Z,40.40
2019-03-31T06:28:50.643Z,39.90
2019-03-31T06:31:21.607Z,38.00
2019-03-31T06:33:52.245Z,38.20
2019-03-31T06:36:22.940Z,38.90
2019-03-31T06:38:53.742Z,38.50
2019-03-31T06:41:24.424Z,39.70
2019-03-31T06:43:54.946Z,39.30
2019-03-31T06:46:26.004Z,38.40
2019-03-31T06:48:56.756Z,37.40
2019-03-31T06:51:27.247Z,37.90
2019-03-31T06:53:57.997Z,38.20
2019-03-31T06:56:28.726Z,38.30
2019-03-31T06:58:59.479Z,37.90
2019-03-31T07:01:30.273Z,38.50
2019-03-31T07:04:00.999Z,37.40
2019-03-31T07:06:31.733Z,38.40
2019-03-31T07:09:02.935Z,39.10
2019-03-31T07:11:33.481Z,38.40
2019-03-31T07:14:04.120Z,37.90
2019-03-31T07:16:35.094Z,37.50
2019-03-31T07:19:06.471Z,36.90
2019-03-31T07:21:37.140Z,37.00
2019-03-31T07:24:07.991Z,36.50
2019-03-31T07:26:38.657Z,36.60
2019-03-31T07:29:09.458Z,36.00
2019-03-31T07:31:40.528Z,36.70
2019-03-31T07:34:11.444Z,36.50
2019-03-31T07:36:42.324Z,37.80
2019-03-31T07:39:14.103Z,37.10
2019-03-31T07:41:45.470Z,36.70
2019-03-31T07:44:16.264Z,36.40
2019-03-31T07:46:47.299Z,36.90
2019-03-31T07:49:18.263Z,37.00
2019-03-31T07:51:48.917Z,36.40
2019-03-31T07:54:20.013Z,37.00
2019-03-31T07:56:50.724Z,36.90
2019-03-31T07:59:21.513Z,37.70
2019-03-31T08:01:52.372Z,38.00
2019-03-31T08:04:23.083Z,37.70
2019-03-31T08:06:53.812Z,37.80
2019-03-31T08:09:24.757Z,38.00
2019-03-31T08:11:55.561Z,38.20
2019-03-31T08:14:26.288Z,38.00
2019-03-31T08:16:57.093Z,38.60
2019-03-31T08:19:27.835Z,38.40
2019-03-31T08:21:58.475Z,38.30
2019-03-31T08:24:29.529Z,37.70
2019-03-31T08:27:00.147Z,38.70
2019-03-31T08:29:30.770Z,36.30
2019-03-31T08:32:01.476Z,36.10
2019-03-31T08:34:31.994Z,37.80
2019-03-31T08:37:02.765Z,37.60
2019-03-31T08:39:33.509Z,38.70
2019-03-31T08:42:04.391Z,38.00
2019-03-31T08:44:35.285Z,38.20
2019-03-31T08:47:06.858Z,38.20
2019-03-31T08:49:37.682Z,38.20
2019-03-31T08:52:08.455Z,38.40
2019-03-31T08:54:39.503Z,38.60
2019-03-31T08:57:09.991Z,38.60
2019-03-31T08:59:40.681Z,39.10
2019-03-31T09:02:13.750Z,39.30
2019-03-31T09:04:44.503Z,39.80
2019-03-31T09:07:15.120Z,39.40
2019-03-31T09:09:46.451Z,39.50
2019-03-31T09:12:17.560Z,39.70
2019-03-31T09:14:47.936Z,39.90
2019-03-31T09:17:18.911Z,39.70
2019-03-31T09:19:49.408Z,40.30
2019-03-31T09:22:20.048Z,40.40
2019-03-31T09:24:51.075Z,39.40
2019-03-31T09:27:21.742Z,39.50
2019-03-31T09:29:52.352Z,39.00
2019-03-31T09:32:23.225Z,38.80
2019-03-31T09:34:53.795Z,39.50
2019-03-31T09:37:24.596Z,39.60
2019-03-31T09:39:55.780Z,39.30
2019-03-31T09:42:27.287Z,39.00
2019-03-31T09:44:58.183Z,39.40
2019-03-31T09:47:29.277Z,39.40
2019-03-31T09:50:00.095Z,39.80
2019-03-31T09:52:30.610Z,40.10
2019-03-31T09:55:01.579Z,40.60
2019-03-31T09:57:32.239Z,41.00
2019-03-31T10:00:02.878Z,41.40
2019-03-31T10:02:34.049Z,42.20
2019-03-31T10:05:05.513Z,42.80
2019-03-31T10:07:36.110Z,43.40
2019-03-31T10:10:09.710Z,44.30
2019-03-31T10:12:40.611Z,44.90
2019-03-31T10:15:11.562Z,45.50
2019-03-31T10:17:42.377Z,46.20
2019-03-31T10:20:13.070Z,46.50
2019-03-31T10:22:43.758Z,47.10
2019-03-31T10:25:14.749Z,47.70
2019-03-31T10:27:45.369Z,47.70
2019-03-31T10:30:19.013Z,47.80
2019-03-31T10:32:49.792Z,48.10
2019-03-31T10:35:20.466Z,48.10
2019-03-31T10:37:51.346Z,48.30
2019-03-31T10:40:22.005Z,48.70
2019-03-31T10:42:52.659Z,48.70
2019-03-31T10:45:23.723Z,48.90
2019-03-31T10:47:54.469Z,49.40
2019-03-31T10:50:25.074Z,49.80
2019-03-31T10:52:55.930Z,49.70
2019-03-31T10:55:26.647Z,50.10
2019-03-31T10:57:57.418Z,50.30
2019-03-31T11:00:31.119Z,50.20
2019-03-31T11:03:01.895Z,50.40
2019-03-31T11:05:32.519Z,50.30
2019-03-31T11:08:03.305Z,50.50
2019-03-31T11:10:34.208Z,50.30
2019-03-31T11:13:05.079Z,51.00
2019-03-31T11:15:36.345Z,50.70
2019-03-31T11:18:07.126Z,50.90
2019-03-31T11:20:37.627Z,51.20
2019-03-31T11:23:08.441Z,51.50
2019-03-31T11:25:38.964Z,51.80
2019-03-31T11:28:09.780Z,51.50
2019-03-31T11:30:40.790Z,52.80
